sensor_id;sensor_type;location;lat;lon;timestamp;pressure;altitude;pressure_sealevel;temperature;humidity
40692;BME280;26377;53.344;14.886;2022-08-11T00:00:41;102372.17;;;15.18;53.90
40692;BME280;26377;53.344;14.886;2022-08-11T00:03:12;102363.50;;;15.13;54.01
40692;BME280;26377;53.344;14.886;2022-08-11T00:05:52;102361.34;;;15.11;54.10
40692;BME280;26377;53.344;14.886;2022-08-11T00:08:25;102362.36;;;15.09;54.17
40692;BME280;26377;53.344;14.886;2022-08-11T00:11:03;102366.13;;;15.05;54.32
40692;BME280;26377;53.344;14.886;2022-08-11T00:13:39;102362.64;;;15.03;54.47
40692;BME280;26377;53.344;14.886;2022-08-11T00:16:14;102372.22;;;14.98;54.56
40692;BME280;26377;53.344;14.886;2022-08-11T00:18:46;102374.42;;;14.89;54.64
40692;BME280;26377;53.344;14.886;2022-08-11T00:21:21;102374.70;;;14.83;54.77
40692;BME280;26377;53.344;14.886;2022-08-11T00:24:00;102377.56;;;14.78;54.93
40692;BME280;26377;53.344;14.886;2022-08-11T00:26:30;102372.04;;;14.73;55.04
40692;BME280;26377;53.344;14.886;2022-08-11T00:29:08;102374.89;;;14.68;55.15
40692;BME280;26377;53.344;14.886;2022-08-11T00:31:38;102373.83;;;14.62;55.24
40692;BME280;26377;53.344;14.886;2022-08-11T00:34:16;102365.16;;;14.57;55.34
40692;BME280;26377;53.344;14.886;2022-08-11T00:36:51;102375.11;;;14.54;55.47
40692;BME280;26377;53.344;14.886;2022-08-11T00:39:45;102372.61;;;14.49;55.55
40692;BME280;26377;53.344;14.886;2022-08-11T00:42:21;102379.50;;;14.45;55.69
40692;BME280;26377;53.344;14.886;2022-08-11T00:45:09;102380.50;;;14.42;55.80
40692;BME280;26377;53.344;14.886;2022-08-11T00:50:40;102369.66;;;14.35;56.08
40692;BME280;26377;53.344;14.886;2022-08-11T01:02:25;102368.61;;;14.18;56.80
40692;BME280;26377;53.344;14.886;2022-08-11T01:36:30;102369.73;;;13.58;58.02
40692;BME280;26377;53.344;14.886;2022-08-11T01:54:26;102360.83;;;13.24;59.02
40692;BME280;26377;53.344;14.886;2022-08-11T01:59:53;102362.75;;;13.21;59.33
40692;BME280;26377;53.344;14.886;2022-08-11T02:05:42;102366.59;;;13.12;59.52
40692;BME280;26377;53.344;14.886;2022-08-11T02:08:46;102363.48;;;13.01;59.48
40692;BME280;26377;53.344;14.886;2022-08-11T02:11:30;102364.58;;;12.94;59.55
40692;BME280;26377;53.344;14.886;2022-08-11T02:17:18;102374.98;;;12.77;59.72
40692;BME280;26377;53.344;14.886;2022-08-11T02:23:01;102380.23;;;12.67;59.93
40692;BME280;26377;53.344;14.886;2022-08-11T02:29:00;102380.25;;;12.54;60.09
40692;BME280;26377;53.344;14.886;2022-08-11T02:35:03;102376.22;;;12.42;60.19
40692;BME280;26377;53.344;14.886;2022-08-11T02:40:52;102380.16;;;12.31;60.44
40692;BME280;26377;53.344;14.886;2022-08-11T02:43:40;102376.83;;;12.24;60.55
40692;BME280;26377;53.344;14.886;2022-08-11T02:46:28;102379.14;;;12.22;60.65
40692;BME280;26377;53.344;14.886;2022-08-11T02:52:43;102370.89;;;12.16;60.78
40692;BME280;26377;53.344;14.886;2022-08-11T03:01:34;102376.11;;;12.06;61.10
40692;BME280;26377;53.344;14.886;2022-08-11T03:04:06;102375.75;;;12.04;61.16
40692;BME280;26377;53.344;14.886;2022-08-11T03:06:54;102376.67;;;12.03;61.28
40692;BME280;26377;53.344;14.886;2022-08-11T03:22:04;102369.23;;;11.86;61.66
40692;BME280;26377;53.344;14.886;2022-08-11T03:24:53;102366.14;;;11.85;61.71
40692;BME280;26377;53.344;14.886;2022-08-11T03:27:44;102367.95;;;11.85;61.80
40692;BME280;26377;53.344;14.886;2022-08-11T03:33:25;102362.67;;;11.83;61.92
40692;BME280;26377;53.344;14.886;2022-08-11T03:45:06;102368.44;;;11.83;62.31
40692;BME280;26377;53.344;14.886;2022-08-11T03:53:52;102371.82;;;11.88;62.66
40692;BME280;26377;53.344;14.886;2022-08-11T04:21:06;102364.19;;;12.31;63.41
40692;BME280;26377;53.344;14.886;2022-08-11T04:27:11;102371.78;;;12.54;63.71
40692;BME280;26377;53.344;14.886;2022-08-11T04:32:45;102370.58;;;13.01;64.20
40692;BME280;26377;53.344;14.886;2022-08-11T04:42:21;102362.69;;;13.78;64.40
40692;BME280;26377;53.344;14.886;2022-08-11T04:58:56;102372.66;;;15.08;64.24
40692;BME280;26377;53.344;14.886;2022-08-11T05:08:20;102364.30;;;15.99;63.83
40692;BME280;26377;53.344;14.886;2022-08-11T05:11:25;102371.11;;;16.23;63.69
40692;BME280;26377;53.344;14.886;2022-08-11T05:17:11;102358.70;;;16.65;63.28
40692;BME280;26377;53.344;14.886;2022-08-11T05:19:59;102364.28;;;16.86;63.09
40692;BME280;26377;53.344;14.886;2022-08-11T05:22:49;102363.55;;;17.08;63.00
40692;BME280;26377;53.344;14.886;2022-08-11T05:25:38;102367.19;;;17.31;62.81
40692;BME280;26377;53.344;14.886;2022-08-11T05:28:41;102371.02;;;17.51;62.56
40692;BME280;26377;53.344;14.886;2022-08-11T05:31:35;102368.73;;;17.67;62.22
40692;BME280;26377;53.344;14.886;2022-08-11T05:34:33;102373.83;;;17.87;62.12
40692;BME280;26377;53.344;14.886;2022-08-11T05:40:10;102378.92;;;18.23;61.46
40692;BME280;26377;53.344;14.886;2022-08-11T05:43:01;102380.08;;;18.41;61.43
40692;BME280;26377;53.344;14.886;2022-08-11T05:45:59;102388.78;;;18.60;61.04
40692;BME280;26377;53.344;14.886;2022-08-11T05:48:47;102384.87;;;18.73;60.70
40692;BME280;26377;53.344;14.886;2022-08-11T05:51:43;102381.66;;;18.89;60.58
40692;BME280;26377;53.344;14.886;2022-08-11T05:54:28;102380.53;;;19.07;60.44
40692;BME280;26377;53.344;14.886;2022-08-11T05:57:20;102385.65;;;19.25;60.27
40692;BME280;26377;53.344;14.886;2022-08-11T05:59:49;102387.97;;;19.45;60.06
40692;BME280;26377;53.344;14.886;2022-08-11T06:02:19;102387.56;;;19.65;59.94
40692;BME280;26377;53.344;14.886;2022-08-11T06:04:53;102382.52;;;19.80;59.61
40692;BME280;26377;53.344;14.886;2022-08-11T06:07:28;102389.59;;;19.95;59.07
40692;BME280;26377;53.344;14.886;2022-08-11T06:09:58;102389.02;;;20.11;59.12
40692;BME280;26377;53.344;14.886;2022-08-11T06:12:31;102392.55;;;20.26;58.77
40692;BME280;26377;53.344;14.886;2022-08-11T06:15:04;102386.96;;;20.41;58.55
40692;BME280;26377;53.344;14.886;2022-08-11T06:17:42;102386.15;;;20.53;58.18
40692;BME280;26377;53.344;14.886;2022-08-11T06:20:12;102383.75;;;20.68;58.04
40692;BME280;26377;53.344;14.886;2022-08-11T06:22:46;102386.86;;;20.82;57.75
40692;BME280;26377;53.344;14.886;2022-08-11T06:25:16;102386.20;;;20.98;57.55
40692;BME280;26377;53.344;14.886;2022-08-11T06:27:44;102393.11;;;21.14;57.32
40692;BME280;26377;53.344;14.886;2022-08-11T06:30:12;102389.72;;;21.30;57.08
40692;BME280;26377;53.344;14.886;2022-08-11T06:32:44;102388.98;;;21.46;56.77
40692;BME280;26377;53.344;14.886;2022-08-11T06:38:36;102389.78;;;21.79;56.17
40692;BME280;26377;53.344;14.886;2022-08-11T06:41:06;102386.41;;;21.88;55.57
40692;BME280;26377;53.344;14.886;2022-08-11T06:46:47;102386.92;;;22.11;55.17
40692;BME280;26377;53.344;14.886;2022-08-11T06:49:21;102386.86;;;22.23;54.78
40692;BME280;26377;53.344;14.886;2022-08-11T06:52:12;102382.66;;;22.43;54.60
40692;BME280;26377;53.344;14.886;2022-08-11T06:54:49;102387.41;;;22.58;54.28
40692;BME280;26377;53.344;14.886;2022-08-11T06:57:20;102387.58;;;22.67;54.03
40692;BME280;26377;53.344;14.886;2022-08-11T07:00:09;102389.06;;;22.77;53.71
40692;BME280;26377;53.344;14.886;2022-08-11T07:03:09;102386.98;;;22.75;53.33
40692;BME280;26377;53.344;14.886;2022-08-11T07:05:57;102392.42;;;22.80;53.15
40692;BME280;26377;53.344;14.886;2022-08-11T07:08:53;102392.07;;;22.90;53.00
40692;BME280;26377;53.344;14.886;2022-08-11T07:15:02;102387.59;;;23.29;52.53
40692;BME280;26377;53.344;14.886;2022-08-11T07:17:52;102387.73;;;23.50;52.22
40692;BME280;26377;53.344;14.886;2022-08-11T07:20:40;102387.37;;;23.71;52.13
40692;BME280;26377;53.344;14.886;2022-08-11T07:23:28;102378.01;;;23.91;51.77
40692;BME280;26377;53.344;14.886;2022-08-11T07:26:20;102378.81;;;24.08;51.47
40692;BME280;26377;53.344;14.886;2022-08-11T07:29:13;102375.33;;;24.23;50.99
40692;BME280;26377;53.344;14.886;2022-08-11T07:31:50;102370.08;;;24.36;50.71
40692;BME280;26377;53.344;14.886;2022-08-11T07:34:33;102377.08;;;24.50;50.40
40692;BME280;26377;53.344;14.886;2022-08-11T07:37:04;102377.02;;;24.66;50.13
40692;BME280;26377;53.344;14.886;2022-08-11T07:39:37;102372.50;;;24.82;49.65
40692;BME280;26377;53.344;14.886;2022-08-11T07:42:09;102370.94;;;24.94;49.53
40692;BME280;26377;53.344;14.886;2022-08-11T07:44:36;102372.30;;;25.09;49.27
40692;BME280;26377;53.344;14.886;2022-08-11T07:47:26;102369.76;;;25.23;48.90
40692;BME280;26377;53.344;14.886;2022-08-11T07:50:13;102368.55;;;25.36;48.61
40692;BME280;26377;53.344;14.886;2022-08-11T07:53:00;102373.98;;;25.51;48.18
40692;BME280;26377;53.344;14.886;2022-08-11T07:55:29;102369.74;;;25.68;47.89
40692;BME280;26377;53.344;14.886;2022-08-11T07:58:01;102373.08;;;25.81;47.47
40692;BME280;26377;53.344;14.886;2022-08-11T08:00:56;102376.09;;;25.93;47.21
40692;BME280;26377;53.344;14.886;2022-08-11T08:03:41;102374.95;;;26.05;46.69
40692;BME280;26377;53.344;14.886;2022-08-11T08:06:29;102377.27;;;26.19;46.44
40692;BME280;26377;53.344;14.886;2022-08-11T08:09:21;102366.84;;;26.33;46.05
40692;BME280;26377;53.344;14.886;2022-08-11T08:12:09;102372.06;;;26.50;45.68
40692;BME280;26377;53.344;14.886;2022-08-11T08:14:56;102375.95;;;26.66;45.40
40692;BME280;26377;53.344;14.886;2022-08-11T08:17:44;102377.68;;;26.86;44.97
40692;BME280;26377;53.344;14.886;2022-08-11T08:20:24;102373.28;;;26.99;44.41
40692;BME280;26377;53.344;14.886;2022-08-11T08:22:56;102373.30;;;27.12;44.04
40692;BME280;26377;53.344;14.886;2022-08-11T08:25:32;102366.65;;;27.20;43.52
40692;BME280;26377;53.344;14.886;2022-08-11T08:28:09;102353.78;;;27.26;42.81
40692;BME280;26377;53.344;14.886;2022-08-11T08:30:40;102353.78;;;27.26;42.81
40692;BME280;26377;53.344;14.886;2022-08-11T08:33:25;102359.83;;;27.43;42.60
40692;BME280;26377;53.344;14.886;2022-08-11T08:35:56;102360.40;;;27.60;42.16
40692;BME280;26377;53.344;14.886;2022-08-11T08:38:42;102348.60;;;27.73;41.99
40692;BME280;26377;53.344;14.886;2022-08-11T08:41:20;102346.61;;;27.89;41.60
40692;BME280;26377;53.344;14.886;2022-08-11T08:43:53;102346.28;;;28.05;41.24
40692;BME280;26377;53.344;14.886;2022-08-11T08:46:24;102336.33;;;28.14;40.89
40692;BME280;26377;53.344;14.886;2022-08-11T08:48:54;102348.47;;;28.19;40.49
40692;BME280;26377;53.344;14.886;2022-08-11T08:51:25;102341.05;;;28.25;40.37
40692;BME280;26377;53.344;14.886;2022-08-11T08:54:15;102344.75;;;28.38;40.02
40692;BME280;26377;53.344;14.886;2022-08-11T08:56:45;102346.92;;;28.48;39.69
40692;BME280;26377;53.344;14.886;2022-08-11T08:59:15;102346.84;;;28.57;39.14
40692;BME280;26377;53.344;14.886;2022-08-11T09:01:58;102342.14;;;28.67;38.72
40692;BME280;26377;53.344;14.886;2022-08-11T09:04:28;102336.41;;;28.78;38.48
40692;BME280;26377;53.344;14.886;2022-08-11T09:06:59;102340.95;;;28.91;38.42
40692;BME280;26377;53.344;14.886;2022-08-11T09:09:44;102334.59;;;29.04;38.16
40692;BME280;26377;53.344;14.886;2022-08-11T09:12:18;102329.52;;;29.13;37.77
40692;BME280;26377;53.344;14.886;2022-08-11T09:14:50;102337.41;;;29.20;37.35
40692;BME280;26377;53.344;14.886;2022-08-11T09:17:33;102329.89;;;29.18;36.75
40692;BME280;26377;53.344;14.886;2022-08-11T09:20:21;102334.48;;;29.18;36.32
40692;BME280;26377;53.344;14.886;2022-08-11T09:22:55;102327.16;;;29.18;36.17
40692;BME280;26377;53.344;14.886;2022-08-11T09:25:43;102333.67;;;29.25;35.84
40692;BME280;26377;53.344;14.886;2022-08-11T09:28:30;102332.17;;;29.31;35.50
40692;BME280;26377;53.344;14.886;2022-08-11T09:30:59;102330.52;;;29.38;35.25
40692;BME280;26377;53.344;14.886;2022-08-11T09:33:28;102329.85;;;29.44;34.88
40692;BME280;26377;53.344;14.886;2022-08-11T09:35:57;102328.69;;;29.50;34.60
40692;BME280;26377;53.344;14.886;2022-08-11T09:38:28;102323.30;;;29.58;34.36
40692;BME280;26377;53.344;14.886;2022-08-11T09:41:14;102324.84;;;29.69;33.95
40692;BME280;26377;53.344;14.886;2022-08-11T09:43:45;102325.22;;;29.78;33.31
40692;BME280;26377;53.344;14.886;2022-08-11T09:46:31;102316.95;;;29.58;32.94
40692;BME280;26377;53.344;14.886;2022-08-11T09:48:59;102310.91;;;29.50;32.75
40692;BME280;26377;53.344;14.886;2022-08-11T09:51:33;102318.14;;;29.55;32.92
40692;BME280;26377;53.344;14.886;2022-08-11T09:54:03;102315.94;;;29.63;32.82
40692;BME280;26377;53.344;14.886;2022-08-11T09:56:35;102307.75;;;29.67;32.59
40692;BME280;26377;53.344;14.886;2022-08-11T09:59:21;102311.02;;;29.74;32.72
40692;BME280;26377;53.344;14.886;2022-08-11T10:02:00;102306.27;;;29.88;32.48
40692;BME280;26377;53.344;14.886;2022-08-11T10:04:40;102303.04;;;30.01;32.40
40692;BME280;26377;53.344;14.886;2022-08-11T10:07:08;102297.98;;;30.18;32.21
40692;BME280;26377;53.344;14.886;2022-08-11T10:09:42;102298.16;;;30.25;31.95
40692;BME280;26377;53.344;14.886;2022-08-11T10:12:16;102291.81;;;30.28;31.62
40692;BME280;26377;53.344;14.886;2022-08-11T10:14:56;102290.45;;;30.28;31.31
40692;BME280;26377;53.344;14.886;2022-08-11T10:17:50;102288.04;;;30.25;31.09
40692;BME280;26377;53.344;14.886;2022-08-11T10:20:38;102284.05;;;29.91;30.40
40692;BME280;26377;53.344;14.886;2022-08-11T10:23:09;102293.75;;;29.78;30.49
40692;BME280;26377;53.344;14.886;2022-08-11T10:25:56;102279.05;;;29.83;30.73
40692;BME280;26377;53.344;14.886;2022-08-11T10:28:43;102288.15;;;29.99;30.99
40692;BME280;26377;53.344;14.886;2022-08-11T10:31:11;102271.63;;;30.13;30.86
40692;BME280;26377;53.344;14.886;2022-08-11T10:33:57;102282.22;;;30.24;30.76
40692;BME280;26377;53.344;14.886;2022-08-11T10:36:35;102274.89;;;30.33;30.74
40692;BME280;26377;53.344;14.886;2022-08-11T10:39:09;102274.20;;;30.43;30.83
40692;BME280;26377;53.344;14.886;2022-08-11T10:41:38;102269.92;;;30.44;30.24
40692;BME280;26377;53.344;14.886;2022-08-11T10:44:26;102277.77;;;30.43;30.16
40692;BME280;26377;53.344;14.886;2022-08-11T10:46:57;102271.63;;;30.41;29.92
40692;BME280;26377;53.344;14.886;2022-08-11T10:49:46;102276.42;;;30.31;29.55
40692;BME280;26377;53.344;14.886;2022-08-11T10:52:15;102272.31;;;30.23;29.58
40692;BME280;26377;53.344;14.886;2022-08-11T10:55:01;102268.72;;;30.39;29.66
40692;BME280;26377;53.344;14.886;2022-08-11T10:57:49;102264.41;;;30.52;29.48
40692;BME280;26377;53.344;14.886;2022-08-11T11:00:34;102260.83;;;30.32;28.68
40692;BME280;26377;53.344;14.886;2022-08-11T11:03:04;102259.98;;;30.19;28.63
40692;BME280;26377;53.344;14.886;2022-08-11T11:05:33;102259.99;;;30.27;28.84
40692;BME280;26377;53.344;14.886;2022-08-11T11:08:14;102254.33;;;30.41;29.17
40692;BME280;26377;53.344;14.886;2022-08-11T11:11:04;102259.80;;;30.57;29.24
40692;BME280;26377;53.344;14.886;2022-08-11T11:13:35;102253.31;;;30.74;29.22
40692;BME280;26377;53.344;14.886;2022-08-11T11:16:24;102253.98;;;30.80;29.05
40692;BME280;26377;53.344;14.886;2022-08-11T11:19:12;102252.59;;;30.88;28.61
40692;BME280;26377;53.344;14.886;2022-08-11T11:21:42;102255.12;;;30.93;28.56
40692;BME280;26377;53.344;14.886;2022-08-11T11:24:17;102245.35;;;30.99;28.31
40692;BME280;26377;53.344;14.886;2022-08-11T11:30:06;102238.08;;;31.18;28.16
40692;BME280;26377;53.344;14.886;2022-08-11T11:32:43;102234.48;;;31.25;27.73
40692;BME280;26377;53.344;14.886;2022-08-11T11:35:35;102231.20;;;31.34;27.66
40692;BME280;26377;53.344;14.886;2022-08-11T11:38:18;102226.72;;;31.33;27.44
40692;BME280;26377;53.344;14.886;2022-08-11T11:40:47;102222.42;;;31.38;27.26
40692;BME280;26377;53.344;14.886;2022-08-11T11:43:17;102217.56;;;31.48;27.20
40692;BME280;26377;53.344;14.886;2022-08-11T11:45:45;102215.84;;;31.51;26.96
40692;BME280;26377;53.344;14.886;2022-08-11T11:48:14;102217.58;;;31.44;26.79
40692;BME280;26377;53.344;14.886;2022-08-11T11:50:42;102215.36;;;31.48;26.78
40692;BME280;26377;53.344;14.886;2022-08-11T11:53:12;102218.05;;;31.52;26.81
40692;BME280;26377;53.344;14.886;2022-08-11T11:55:41;102218.09;;;31.48;26.58
40692;BME280;26377;53.344;14.886;2022-08-11T11:58:09;102213.53;;;31.36;26.49
40692;BME280;26377;53.344;14.886;2022-08-11T12:00:45;102204.73;;;31.45;26.67
40692;BME280;26377;53.344;14.886;2022-08-11T12:03:38;102203.63;;;31.58;26.65
40692;BME280;26377;53.344;14.886;2022-08-11T12:06:08;102199.10;;;31.65;26.54
40692;BME280;26377;53.344;14.886;2022-08-11T12:08:40;102204.92;;;31.66;26.63
40692;BME280;26377;53.344;14.886;2022-08-11T12:11:10;102199.08;;;31.69;26.59
40692;BME280;26377;53.344;14.886;2022-08-11T12:13:59;102203.36;;;31.75;26.67
40692;BME280;26377;53.344;14.886;2022-08-11T12:16:30;102204.83;;;31.86;26.72
40692;BME280;26377;53.344;14.886;2022-08-11T12:19:02;102198.00;;;32.00;26.45
40692;BME280;26377;53.344;14.886;2022-08-11T12:21:33;102194.12;;;32.13;26.51
40692;BME280;26377;53.344;14.886;2022-08-11T12:24:03;102188.70;;;32.28;26.41
40692;BME280;26377;53.344;14.886;2022-08-11T12:26:50;102185.67;;;32.37;26.06
40692;BME280;26377;53.344;14.886;2022-08-11T12:29:35;102174.61;;;32.31;25.73
40692;BME280;26377;53.344;14.886;2022-08-11T12:32:05;102175.87;;;32.20;25.52
40692;BME280;26377;53.344;14.886;2022-08-11T12:34:33;102172.91;;;32.07;25.33
40692;BME280;26377;53.344;14.886;2022-08-11T12:37:03;102174.72;;;32.15;25.52
40692;BME280;26377;53.344;14.886;2022-08-11T12:39:37;102170.53;;;32.23;25.26
40692;BME280;26377;53.344;14.886;2022-08-11T12:42:24;102175.91;;;32.16;25.06
40692;BME280;26377;53.344;14.886;2022-08-11T12:45:12;102166.97;;;32.00;24.98
40692;BME280;26377;53.344;14.886;2022-08-11T12:48:08;102166.36;;;32.08;25.14
40692;BME280;26377;53.344;14.886;2022-08-11T12:51:11;102163.19;;;32.19;25.21
40692;BME280;26377;53.344;14.886;2022-08-11T12:56:40;102157.48;;;32.43;25.24
40692;BME280;26377;53.344;14.886;2022-08-11T12:59:29;102154.94;;;32.56;25.02
40692;BME280;26377;53.344;14.886;2022-08-11T13:02:16;102153.58;;;32.67;24.91
40692;BME280;26377;53.344;14.886;2022-08-11T13:05:07;102149.84;;;32.78;24.83
40692;BME280;26377;53.344;14.886;2022-08-11T13:07:41;102143.45;;;32.67;24.31
40692;BME280;26377;53.344;14.886;2022-08-11T13:10:11;102137.21;;;32.59;24.21
40692;BME280;26377;53.344;14.886;2022-08-11T13:12:41;102134.06;;;32.62;24.17
40692;BME280;26377;53.344;14.886;2022-08-11T13:15:23;102133.61;;;32.73;24.22
40692;BME280;26377;53.344;14.886;2022-08-11T13:17:53;102132.88;;;32.75;24.07
40692;BME280;26377;53.344;14.886;2022-08-11T13:20:23;102131.37;;;32.72;23.93
40692;BME280;26377;53.344;14.886;2022-08-11T13:22:54;102133.70;;;32.65;23.75
40692;BME280;26377;53.344;14.886;2022-08-11T13:25:25;102127.33;;;32.64;23.72
40692;BME280;26377;53.344;14.886;2022-08-11T13:27:56;102132.28;;;32.69;23.71
40692;BME280;26377;53.344;14.886;2022-08-11T13:30:30;102130.31;;;32.73;23.84
40692;BME280;26377;53.344;14.886;2022-08-11T13:33:17;102128.37;;;32.82;24.06
40692;BME280;26377;53.344;14.886;2022-08-11T13:35:47;102122.50;;;32.95;24.24
40692;BME280;26377;53.344;14.886;2022-08-11T13:38:18;102124.75;;;33.06;24.27
40692;BME280;26377;53.344;14.886;2022-08-11T13:40:50;102119.09;;;33.18;24.13
40692;BME280;26377;53.344;14.886;2022-08-11T13:43:20;102118.60;;;33.04;23.83
40692;BME280;26377;53.344;14.886;2022-08-11T13:45:51;102115.56;;;33.14;23.82
40692;BME280;26377;53.344;14.886;2022-08-11T13:48:21;102105.73;;;33.26;23.95
40692;BME280;26377;53.344;14.886;2022-08-11T13:50:50;102112.28;;;33.39;24.08
40692;BME280;26377;53.344;14.886;2022-08-11T13:53:36;102110.75;;;33.47;24.05
40692;BME280;26377;53.344;14.886;2022-08-11T13:56:03;102104.61;;;33.45;23.56
40692;BME280;26377;53.344;14.886;2022-08-11T13:58:32;102107.24;;;33.53;23.70
40692;BME280;26377;53.344;14.886;2022-08-11T14:00:59;102107.50;;;33.58;23.81
40692;BME280;26377;53.344;14.886;2022-08-11T14:03:28;102106.64;;;33.68;23.73
40692;BME280;26377;53.344;14.886;2022-08-11T14:05:58;102101.13;;;33.68;23.34
40692;BME280;26377;53.344;14.886;2022-08-11T14:08:30;102106.19;;;33.65;23.33
40692;BME280;26377;53.344;14.886;2022-08-11T14:11:01;102093.83;;;33.71;23.37
40692;BME280;26377;53.344;14.886;2022-08-11T14:13:40;102087.17;;;33.70;23.14
40692;BME280;26377;53.344;14.886;2022-08-11T14:16:28;102091.81;;;33.59;23.17
40692;BME280;26377;53.344;14.886;2022-08-11T14:19:00;102092.36;;;33.58;23.18
40692;BME280;26377;53.344;14.886;2022-08-11T14:21:38;102089.41;;;33.49;22.88
40692;BME280;26377;53.344;14.886;2022-08-11T14:24:21;102081.02;;;33.36;22.69
40692;BME280;26377;53.344;14.886;2022-08-11T14:26:49;102075.14;;;33.14;22.59
40692;BME280;26377;53.344;14.886;2022-08-11T14:29:20;102074.08;;;33.15;22.70
40692;BME280;26377;53.344;14.886;2022-08-11T14:31:55;102072.27;;;33.22;22.74
40692;BME280;26377;53.344;14.886;2022-08-11T14:34:25;102071.22;;;33.23;22.62
40692;BME280;26377;53.344;14.886;2022-08-11T14:36:57;102067.03;;;33.27;22.58
40692;BME280;26377;53.344;14.886;2022-08-11T14:39:35;102060.81;;;33.19;22.51
40692;BME280;26377;53.344;14.886;2022-08-11T14:42:06;102059.69;;;33.13;22.63
40692;BME280;26377;53.344;14.886;2022-08-11T14:44:57;102059.80;;;33.05;22.81
40692;BME280;26377;53.344;14.886;2022-08-11T14:47:52;102049.25;;;33.09;22.78
40692;BME280;26377;53.344;14.886;2022-08-11T14:50:23;102054.24;;;33.09;22.83
40692;BME280;26377;53.344;14.886;2022-08-11T14:52:58;102057.45;;;33.13;22.82
40692;BME280;26377;53.344;14.886;2022-08-11T14:55:28;102055.56;;;33.13;22.64
40692;BME280;26377;53.344;14.886;2022-08-11T14:58:18;102044.94;;;33.10;22.51
40692;BME280;26377;53.344;14.886;2022-08-11T15:00:49;102050.09;;;32.99;22.25
40692;BME280;26377;53.344;14.886;2022-08-11T15:03:21;102040.27;;;32.79;22.31
40692;BME280;26377;53.344;14.886;2022-08-11T15:05:56;102040.07;;;32.66;22.01
40692;BME280;26377;53.344;14.886;2022-08-11T15:08:29;102041.39;;;32.31;22.00
40692;BME280;26377;53.344;14.886;2022-08-11T15:11:20;102040.82;;;32.02;22.00
40692;BME280;26377;53.344;14.886;2022-08-11T15:14:09;102043.46;;;31.77;22.09
40692;BME280;26377;53.344;14.886;2022-08-11T15:16:43;102039.73;;;31.70;22.29
40692;BME280;26377;53.344;14.886;2022-08-11T15:19:31;102039.70;;;31.78;22.60
40692;BME280;26377;53.344;14.886;2022-08-11T15:22:00;102034.61;;;31.90;22.60
40692;BME280;26377;53.344;14.886;2022-08-11T15:24:46;102030.34;;;32.02;22.94
40692;BME280;26377;53.344;14.886;2022-08-11T15:27:16;102024.59;;;32.11;22.93
40692;BME280;26377;53.344;14.886;2022-08-11T15:30:05;102021.30;;;32.12;23.00
40692;BME280;26377;53.344;14.886;2022-08-11T15:32:52;102020.07;;;32.14;23.20
40692;BME280;26377;53.344;14.886;2022-08-11T15:35:39;102016.13;;;32.17;23.12
40692;BME280;26377;53.344;14.886;2022-08-11T15:38:27;102020.24;;;32.17;23.09
40692;BME280;26377;53.344;14.886;2022-08-11T15:40:57;102019.52;;;32.19;22.96
40692;BME280;26377;53.344;14.886;2022-08-11T15:46:51;102007.93;;;32.13;22.72
40692;BME280;26377;53.344;14.886;2022-08-11T15:49:29;102012.54;;;31.98;22.70
40692;BME280;26377;53.344;14.886;2022-08-11T15:52:07;102010.27;;;31.87;22.78
40692;BME280;26377;53.344;14.886;2022-08-11T15:54:42;102020.23;;;31.65;22.73
40692;BME280;26377;53.344;14.886;2022-08-11T15:57:18;102012.29;;;31.52;22.90
40692;BME280;26377;53.344;14.886;2022-08-11T16:00:06;102010.59;;;31.32;22.96
40692;BME280;26377;53.344;14.886;2022-08-11T16:02:54;102014.19;;;31.06;22.97
40692;BME280;26377;53.344;14.886;2022-08-11T16:05:43;102011.78;;;30.81;22.98
40692;BME280;26377;53.344;14.886;2022-08-11T16:08:13;102005.86;;;30.61;23.09
40692;BME280;26377;53.344;14.886;2022-08-11T16:10:43;102004.78;;;30.40;23.17
40692;BME280;26377;53.344;14.886;2022-08-11T16:13:12;102002.64;;;30.19;23.26
40692;BME280;26377;53.344;14.886;2022-08-11T16:15:46;101999.94;;;30.03;23.54
40692;BME280;26377;53.344;14.886;2022-08-11T16:21:31;101989.89;;;29.83;23.94
40692;BME280;26377;53.344;14.886;2022-08-11T16:24:02;101993.33;;;29.81;24.24
40692;BME280;26377;53.344;14.886;2022-08-11T16:26:31;101988.90;;;29.72;24.20
40692;BME280;26377;53.344;14.886;2022-08-11T16:29:02;101991.77;;;29.55;24.53
40692;BME280;26377;53.344;14.886;2022-08-11T16:31:34;101993.67;;;29.38;24.91
40692;BME280;26377;53.344;14.886;2022-08-11T16:34:03;101987.36;;;29.26;25.31
40692;BME280;26377;53.344;14.886;2022-08-11T16:36:33;101992.64;;;29.11;25.62
40692;BME280;26377;53.344;14.886;2022-08-11T16:39:20;101996.86;;;28.94;26.01
40692;BME280;26377;53.344;14.886;2022-08-11T16:41:48;102002.45;;;28.72;26.36
40692;BME280;26377;53.344;14.886;2022-08-11T16:44:35;101993.67;;;28.49;26.65
40692;BME280;26377;53.344;14.886;2022-08-11T16:47:22;101995.76;;;28.21;26.78
40692;BME280;26377;53.344;14.886;2022-08-11T16:49:53;102002.17;;;28.08;27.00
40692;BME280;26377;53.344;14.886;2022-08-11T16:52:23;101997.30;;;27.90;27.08
40692;BME280;26377;53.344;14.886;2022-08-11T16:54:52;102003.43;;;27.71;27.59
40692;BME280;26377;53.344;14.886;2022-08-11T16:57:25;102004.13;;;27.47;28.26
40692;BME280;26377;53.344;14.886;2022-08-11T17:00:14;102001.22;;;27.27;29.05
40692;BME280;26377;53.344;14.886;2022-08-11T17:02:48;102009.91;;;27.09;29.71
40692;BME280;26377;53.344;14.886;2022-08-11T17:05:50;102006.86;;;26.95;30.27